Time;durP1;ratioP1;P1;durP2;ratioP2;P2;SDS_P1;SDS_P2;PMS_P1;PMS_P2;Temp;Humidity;BMP_temperature;BMP_pressure;BME280_temperature;BME280_humidity;BME280_pressure;Samples;Min_cycle;Max_cycle;Signal;HPM_P1;HPM_P2
2023/04/13 12:27:18;;;;;;;2.10;1.90;;;;;;;12.20;67.24;97883.20;102482;1293;616964;-22
2023/04/13 12:29:51;;;;;;;3.00;2.10;;;;;;;12.04;66.59;97886.94;105195;1264;61971;-23
2023/04/13 12:32:18;;;;;;;2.90;2.30;;;;;;;12.12;68.11;97890.48;105189;1266;61818;-23
2023/04/13 12:34:45;;;;;;;2.30;2.00;;;;;;;12.05;68.84;97893.65;105133;1266;74236;-23
2023/04/13 12:37:12;;;;;;;2.90;2.50;;;;;;;11.97;68.73;97900.89;104946;1269;76013;-23
2023/04/13 12:39:41;;;;;;;2.90;2.30;;;;;;;11.91;68.51;97897.71;103556;1263;2302513;-23
2023/04/13 12:42:08;;;;;;;2.00;1.60;;;;;;;11.83;68.57;97896.48;105102;1260;61983;-23
2023/04/13 12:44:38;;;;;;;2.70;1.90;;;;;;;11.79;68.20;97899.89;105248;1263;61312;-22
2023/04/13 12:54:43;;;;;;;3.10;1.90;;;;;;;12.12;69.13;97895.04;102673;1293;601074;-23
2023/04/13 12:57:16;;;;;;;2.40;1.80;;;;;;;12.60;67.57;97894.89;105040;1268;62030;-23
2023/04/13 12:59:44;;;;;;;3.10;2.40;;;;;;;12.79;66.62;97893.48;105126;1264;61198;-23
2023/04/13 13:02:14;;;;;;;3.30;2.60;;;;;;;12.82;66.13;97895.55;105147;1267;73851;-23
2023/04/13 13:04:43;;;;;;;3.00;1.90;;;;;;;12.74;65.99;97895.73;104878;1266;75582;-23
2023/04/13 13:07:11;;;;;;;2.70;2.40;;;;;;;12.36;66.96;97898.62;103539;1267;2151722;-24
2023/04/13 13:09:41;;;;;;;3.40;2.40;;;;;;;12.50;66.76;97898.86;105303;1257;61907;-23
2023/04/13 13:12:11;;;;;;;2.60;2.10;;;;;;;12.52;66.21;97893.09;105585;1256;61834;-23
2023/04/13 13:14:40;;;;;;;2.90;2.30;;;;;;;12.49;66.36;97895.11;105503;1257;73061;-23
2023/04/13 13:17:08;;;;;;;4.60;2.50;;;;;;;12.35;66.45;97899.53;105442;1257;75765;-23
2023/04/13 13:19:37;;;;;;;3.30;2.30;;;;;;;12.27;66.40;97895.19;105571;1257;74163;-23
2023/04/13 13:22:05;;;;;;;2.50;2.10;;;;;;;12.22;66.78;97896.34;105666;1256;61857;-23
2023/04/13 13:24:34;;;;;;;4.20;2.70;;;;;;;12.16;67.99;97894.95;105648;1259;61605;-23
2023/04/13 13:27:03;;;;;;;2.10;1.90;;;;;;;12.16;67.65;97895.44;105662;1254;74431;-23
2023/04/13 13:29:36;;;;;;;4.10;2.30;;;;;;;12.03;67.84;97897.13;105662;1254;76079;-23
2023/04/13 13:32:05;;;;;;;2.40;2.00;;;;;;;11.93;68.44;97897.48;105651;1257;73155;-23
2023/04/13 13:34:34;;;;;;;2.60;2.00;;;;;;;11.79;67.73;97892.86;105373;1254;62026;-23
2023/04/13 13:37:03;;;;;;;2.50;2.00;;;;;;;11.84;67.82;97894.98;105602;1254;61089;-23
2023/04/13 13:39:34;;;;;;;3.40;1.90;;;;;;;11.82;67.11;97895.48;105557;1255;74210;-23
2023/04/13 13:42:03;;;;;;;3.10;2.20;;;;;;;11.85;67.76;97896.45;105656;1254;74930;-23
2023/04/13 13:44:32;;;;;;;4.20;2.50;;;;;;;11.90;68.46;97894.13;105621;1257;74220;-24
2023/04/13 13:47:03;;;;;;;2.20;1.60;;;;;;;11.95;68.86;97897.70;105571;1257;63688;-23
2023/04/13 13:49:32;;;;;;;3.40;2.00;;;;;;;12.34;67.17;97901.23;105646;1260;61939;-24
2023/04/13 13:52:08;;;;;;;2.90;2.40;;;;;;;12.69;65.71;97901.02;105585;1259;74331;-24
2023/04/13 13:54:44;;;;;;;3.20;2.10;;;;;;;12.86;65.04;97900.51;105379;1262;74932;-24
2023/04/13 13:57:13;;;;;;;2.30;1.90;;;;;;;12.82;64.44;97903.20;105511;1257;73937;-24
2023/04/13 13:59:43;;;;;;;3.40;2.30;;;;;;;12.58;63.86;97905.77;105232;1259;61686;-24
2023/04/13 14:02:13;;;;;;;2.60;2.30;;;;;;;12.47;65.32;97907.48;105243;1257;61936;-24
2023/04/13 14:04:42;;;;;;;2.40;2.20;;;;;;;12.34;65.96;97905.44;105515;1257;74618;-24
2023/04/13 14:07:14;;;;;;;2.60;2.40;;;;;;;12.25;67.44;97904.21;105270;1258;76141;-24
2023/04/13 14:09:44;;;;;;;2.80;2.30;;;;;;;12.15;67.08;97902.55;105509;1257;74168;-24
2023/04/13 14:12:12;;;;;;;5.80;2.40;;;;;;;12.07;67.92;97902.48;105568;1261;62223;-24
2023/04/13 14:14:41;;;;;;;3.10;2.60;;;;;;;11.92;68.05;97907.46;105262;1263;61611;-24
2023/04/13 14:17:11;;;;;;;3.70;1.90;;;;;;;11.82;68.63;97911.17;105553;1261;74471;-24
2023/04/13 14:19:40;;;;;;;2.80;2.50;;;;;;;11.88;68.59;97912.73;105217;1262;76030;-24
2023/04/13 14:22:09;;;;;;;3.70;2.40;;;;;;;11.88;68.22;97914.23;105513;1257;74247;-24
2023/04/13 14:24:45;;;;;;;2.90;1.70;;;;;;;11.96;69.19;97911.84;105406;1257;63969;-24
2023/04/13 14:27:14;;;;;;;3.00;1.90;;;;;;;12.53;66.50;97912.57;105411;1258;61818;-24
2023/04/13 14:29:45;;;;;;;4.00;2.40;;;;;;;13.04;64.66;97907.77;105474;1257;73097;-24
2023/04/13 14:32:14;;;;;;;2.50;1.90;;;;;;;13.10;64.00;97909.70;105283;1257;75558;-24
2023/04/13 14:34:46;;;;;;;3.30;2.50;;;;;;;13.07;64.02;97910.64;105306;1257;74004;-23
2023/04/13 14:37:15;;;;;;;2.80;2.30;;;;;;;12.85;64.76;97913.11;105354;1258;61993;-22
2023/04/13 14:39:48;;;;;;;3.00;2.40;;;;;;;12.74;65.23;97919.55;105487;1262;61330;-22
2023/04/13 14:42:16;;;;;;;3.00;2.40;;;;;;;12.45;65.34;97916.20;105305;1263;73566;-24
2023/04/13 14:44:45;;;;;;;3.10;2.40;;;;;;;12.38;66.68;97919.96;105531;1258;74876;-24
2023/04/13 14:47:14;;;;;;;5.30;2.40;;;;;;;12.29;67.56;97918.63;105460;1257;73870;-24
2023/04/13 14:49:44;;;;;;;3.80;2.40;;;;;;;12.18;67.77;97928.64;105152;1263;61171;-23
2023/04/13 14:52:13;;;;;;;5.00;2.90;;;;;;;12.01;68.11;97929.83;105078;1261;61674;-24
2023/04/13 14:54:45;;;;;;;4.90;2.50;;;;;;;11.90;68.64;97931.91;105470;1258;74531;-24
2023/04/13 14:57:16;;;;;;;3.30;2.60;;;;;;;11.82;69.00;97931.52;105567;1259;75984;-24
2023/04/13 14:59:44;;;;;;;1.90;1.70;;;;;;;11.80;70.12;97934.90;105552;1257;74319;-24
2023/04/13 15:02:13;;;;;;;2.30;2.00;;;;;;;12.25;68.28;97936.59;105366;1257;61939;-24
2023/04/13 15:04:42;;;;;;;2.60;2.30;;;;;;;12.74;66.63;97938.62;105481;1260;61705;-25
2023/04/13 15:07:11;;;;;;;4.40;2.10;;;;;;;12.89;66.35;97938.71;105463;1260;74538;-22
2023/04/13 15:09:40;;;;;;;4.20;2.90;;;;;;;12.85;66.49;97940.33;105534;1260;75018;-22
2023/04/13 15:12:09;;;;;;;3.20;2.40;;;;;;;12.72;67.67;97937.77;105583;1257;74662;-22
2023/04/13 15:14:45;;;;;;;2.80;2.40;;;;;;;12.53;68.66;97937.98;105522;1257;61435;-22
2023/04/13 15:17:14;;;;;;;3.10;2.60;;;;;;;12.33;68.73;97943.41;105338;1257;61064;-22
2023/04/13 15:19:46;;;;;;;3.20;2.40;;;;;;;12.18;69.49;97944.04;105272;1260;73198;-24
2023/04/13 15:22:15;;;;;;;3.20;2.50;;;;;;;12.04;70.48;97946.98;105204;1260;76275;-22
2023/04/13 15:24:43;;;;;;;3.30;2.70;;;;;;;11.97;70.71;97947.34;105511;1258;74010;-23
2023/04/13 15:27:12;;;;;;;6.10;2.80;;;;;;;11.93;70.88;97951.25;105392;1260;61928;-22
2023/04/13 15:29:42;;;;;;;2.40;1.90;;;;;;;11.89;71.22;97955.77;105562;1260;61128;-23
2023/04/13 15:32:11;;;;;;;3.20;1.80;;;;;;;12.46;70.45;97959.50;105561;1257;74566;-23
2023/04/13 15:34:40;;;;;;;4.50;2.10;;;;;;;13.06;67.75;97961.24;105612;1257;75871;-22
2023/04/13 15:37:09;;;;;;;2.40;2.00;;;;;;;13.17;67.93;97960.89;105358;1258;74252;-23
2023/04/13 15:39:38;;;;;;;5.80;2.20;;;;;;;13.10;67.73;97962.69;105369;1257;61624;-23
2023/04/13 15:42:07;;;;;;;2.70;2.10;;;;;;;12.89;67.52;97963.23;105228;1262;61615;-23
2023/04/13 15:44:36;;;;;;;2.70;2.40;;;;;;;12.65;68.71;97970.81;105550;1258;74227;-22
2023/04/13 15:47:06;;;;;;;4.60;2.70;;;;;;;12.44;69.32;97973.99;105535;1260;75843;-23
2023/04/13 15:49:34;;;;;;;2.90;2.60;;;;;;;12.27;69.62;97976.41;105173;1257;74300;-23
2023/04/13 15:52:03;;;;;;;4.00;2.80;;;;;;;12.13;70.20;97975.64;105486;1257;61806;-22
2023/04/13 15:54:32;;;;;;;4.30;3.30;;;;;;;11.97;71.03;97975.83;105656;1261;61860;-24
2023/04/13 15:57:01;;;;;;;2.30;1.80;;;;;;;11.87;71.95;97979.85;105630;1260;73567;-23
2023/04/13 15:59:33;;;;;;;3.10;2.00;;;;;;;12.32;71.60;97974.35;105265;1256;75842;-23
2023/04/13 16:02:03;;;;;;;3.10;2.30;;;;;;;12.84;70.06;97976.21;105499;1256;73712;-23
2023/04/13 16:04:34;;;;;;;3.10;2.50;;;;;;;12.84;68.97;97970.92;105230;1256;61890;-22
2023/04/13 16:07:03;;;;;;;3.30;2.50;;;;;;;12.72;69.47;97977.31;105166;1262;61825;-23
2023/04/13 16:09:55;;;;;;;3.50;2.20;;;;;;;12.51;70.16;97975.11;105569;1262;74558;-23
2023/04/13 16:12:30;;;;;;;2.80;2.40;;;;;;;12.33;70.86;97978.38;105262;1263;75791;-23
2023/04/13 16:15:03;;;;;;;4.00;3.00;;;;;;;12.14;71.44;97972.91;105487;1256;74140;-22
2023/04/13 16:17:39;;;;;;;2.70;2.50;;;;;;;11.95;72.22;97974.81;105415;1257;61507;-23
2023/04/13 16:20:18;;;;;;;4.60;2.60;;;;;;;11.74;73.32;97983.08;105323;1256;61064;-23
2023/04/13 16:22:49;;;;;;;2.70;1.90;;;;;;;11.60;74.18;97981.20;105545;1257;74343;-23
2023/04/13 16:25:19;;;;;;;2.50;1.90;;;;;;;12.14;73.51;97983.52;105476;1257;75674;-22
2023/04/13 16:27:50;;;;;;;2.80;2.20;;;;;;;12.68;71.31;97990.08;105213;1256;74182;-23
2023/04/13 16:30:22;;;;;;;4.40;2.50;;;;;;;12.72;70.48;97989.29;105366;1260;61192;-23
2023/04/13 16:32:51;;;;;;;3.00;2.50;;;;;;;12.53;70.67;97994.02;105489;1260;61742;-23
2023/04/13 16:35:20;;;;;;;3.30;2.50;;;;;;;12.31;71.33;97999.02;105585;1256;73587;-23
2023/04/13 16:37:48;;;;;;;2.90;2.60;;;;;;;12.02;72.28;98000.08;105587;1257;75890;-22
2023/04/13 16:40:18;;;;;;;3.00;2.60;;;;;;;11.79;73.57;97997.56;105583;1257;73792;-22
2023/04/13 16:42:46;;;;;;;2.70;2.30;;;;;;;11.59;74.83;97993.38;105546;1255;61107;-22
2023/04/13 16:45:15;;;;;;;2.90;1.60;;;;;;;11.46;75.48;97990.87;105568;1255;61862;-22
2023/04/13 16:47:43;;;;;;;3.90;1.90;;;;;;;11.81;74.25;97989.90;105576;1256;74318;-22
2023/04/13 16:50:15;;;;;;;3.10;2.30;;;;;;;12.37;72.69;97990.50;105264;1256;75846;-22
2023/04/13 16:52:44;;;;;;;3.10;2.60;;;;;;;12.44;71.71;97990.70;105506;1256;74029;-23
2023/04/13 16:55:16;;;;;;;2.80;2.30;;;;;;;12.26;72.20;97989.88;105565;1256;62024;-25
2023/04/13 16:57:45;;;;;;;3.10;2.50;;;;;;;12.00;72.95;97992.92;105325;1256;62614;-24
2023/04/13 17:00:16;;;;;;;4.50;3.20;;;;;;;11.82;73.59;97993.98;105538;1256;74765;-22
2023/04/13 17:02:46;;;;;;;3.10;2.50;;;;;;;11.60;74.47;98002.08;105361;1259;76325;-22
2023/04/13 17:05:15;;;;;;;4.70;2.80;;;;;;;11.41;74.89;98005.38;105611;1260;74242;-22
2023/04/13 17:07:51;;;;;;;2.40;1.50;;;;;;;11.25;75.00;98006.98;105552;1260;63274;-23
2023/04/13 17:10:21;;;;;;;2.90;1.70;;;;;;;11.74;74.68;98010.73;105538;1258;61567;-23
2023/04/13 17:12:50;;;;;;;3.80;1.70;;;;;;;12.29;72.40;98011.18;105327;1256;75125;-23
2023/04/13 17:15:19;;;;;;;3.20;2.30;;;;;;;12.35;71.49;98013.19;105292;1257;74455;-23
2023/04/13 17:17:53;;;;;;;2.60;2.00;;;;;;;12.17;71.53;98012.51;105458;1256;73830;-24
2023/04/13 17:20:23;;;;;;;3.80;2.20;;;;;;;11.95;71.94;98019.02;105154;1256;60995;-23
2023/04/13 17:22:52;;;;;;;2.80;2.00;;;;;;;11.73;72.08;98025.61;105394;1261;61105;-23
2023/04/13 17:25:23;;;;;;;2.70;2.20;;;;;;;11.53;72.40;98030.96;105436;1257;75273;-23
2023/04/13 17:27:52;;;;;;;2.30;2.10;;;;;;;11.34;72.74;98034.92;105487;1255;74638;-23
2023/04/13 17:30:21;;;;;;;4.70;2.50;;;;;;;11.16;73.48;98040.67;105389;1262;74163;-23
2023/04/13 17:32:56;;;;;;;2.40;1.80;;;;;;;10.98;74.37;98038.03;105359;1257;63438;-24
2023/04/13 17:35:25;;;;;;;2.80;1.50;;;;;;;11.43;73.54;98039.41;105412;1261;61593;-23
2023/04/13 17:37:53;;;;;;;2.40;1.80;;;;;;;11.90;72.34;98039.00;105551;1256;75200;-24
2023/04/13 17:40:30;;;;;;;3.00;2.20;;;;;;;11.92;72.41;98040.80;105630;1260;75779;-23
2023/04/13 17:42:58;;;;;;;3.00;2.30;;;;;;;11.74;72.47;98045.70;105388;1262;74340;-23
2023/04/13 17:45:27;;;;;;;2.90;2.30;;;;;;;11.53;73.23;98051.63;105196;1257;61697;-23
2023/04/13 17:48:01;;;;;;;5.10;3.70;;;;;;;11.28;74.06;98052.95;105282;1258;61737;-23
2023/04/13 17:50:31;;;;;;;8.00;5.00;;;;;;;11.03;75.12;98056.89;105563;1256;75329;-23
2023/04/13 17:53:02;;;;;;;10.10;7.00;;;;;;;10.84;76.21;98061.86;105553;1253;75825;-23
2023/04/13 17:55:35;;;;;;;10.20;6.70;;;;;;;10.70;75.73;98069.17;105551;1253;73101;-23
2023/04/13 17:58:04;;;;;;;6.70;4.10;;;;;;;10.65;76.32;98070.52;105472;1254;63209;-23
2023/04/13 18:00:33;;;;;;;6.90;4.40;;;;;;;11.19;74.74;98072.55;105480;1252;61508;-23
2023/04/13 18:03:03;;;;;;;7.40;5.00;;;;;;;11.76;71.96;98072.45;105739;1257;75235;-23
2023/04/13 18:05:34;;;;;;;10.50;7.00;;;;;;;11.88;71.16;98071.70;105716;1254;75894;-23
2023/04/13 18:08:02;;;;;;;8.50;6.10;;;;;;;11.76;71.35;98076.27;105460;1258;74137;-23
2023/04/13 18:10:32;;;;;;;9.20;6.40;;;;;;;11.57;71.33;98078.63;105714;1257;61122;-23
2023/04/13 18:13:07;;;;;;;8.40;6.00;;;;;;;11.40;72.43;98082.27;105795;1258;61851;-23
2023/04/13 18:15:38;;;;;;;8.80;6.40;;;;;;;11.20;73.13;98083.77;105677;1253;75252;-23
2023/04/13 18:18:06;;;;;;;11.00;6.10;;;;;;;11.03;73.73;98083.33;105604;1253;75877;-23
2023/04/13 18:20:41;;;;;;;10.40;6.90;;;;;;;10.90;73.85;98086.02;105524;1257;74286;-23
2023/04/13 18:23:10;;;;;;;8.60;5.60;;;;;;;10.84;74.39;98089.04;105541;1258;63509;-23
2023/04/13 18:25:39;;;;;;;6.70;5.00;;;;;;;11.40;73.91;98091.27;105685;1257;61794;-23
2023/04/13 18:28:08;;;;;;;10.00;6.60;;;;;;;12.03;72.20;98090.13;105869;1252;74405;-23
2023/04/13 18:30:37;;;;;;;7.50;5.80;;;;;;;12.15;71.04;98090.36;105565;1254;75749;-23
2023/04/13 18:33:08;;;;;;;7.90;5.90;;;;;;;12.07;70.63;98092.50;105667;1256;74119;-23
2023/04/13 18:35:44;;;;;;;8.10;5.40;;;;;;;11.90;70.60;98097.85;105437;1253;61164;-24
2023/04/13 18:38:13;;;;;;;6.70;4.70;;;;;;;11.69;70.97;98097.10;105662;1253;61084;-23
2023/04/13 18:40:42;;;;;;;5.20;4.10;;;;;;;11.50;71.37;98100.27;105720;1253;75350;-23
2023/04/13 18:43:11;;;;;;;5.60;4.30;;;;;;;11.27;71.94;98100.40;105513;1255;75732;-23
2023/04/13 18:45:41;;;;;;;6.20;4.60;;;;;;;11.04;72.70;98099.00;105782;1253;74032;-23
2023/04/13 18:48:09;;;;;;;5.70;2.90;;;;;;;10.91;73.62;98097.89;105894;1252;62411;-23
2023/04/13 18:50:39;;;;;;;6.30;3.90;;;;;;;11.34;73.76;98098.47;105887;1257;61870;-23
2023/04/13 18:53:08;;;;;;;5.90;4.30;;;;;;;11.90;71.75;98099.90;105693;1258;74373;-23
2023/04/13 18:55:39;;;;;;;6.70;4.00;;;;;;;11.97;70.86;98098.82;105896;1255;75674;-23
2023/04/13 18:58:08;;;;;;;6.70;4.50;;;;;;;11.83;70.88;98097.46;105759;1253;73972;-23
2023/04/13 19:00:37;;;;;;;9.50;5.60;;;;;;;11.58;71.72;98090.44;105881;1253;61554;-23
2023/04/13 19:03:07;;;;;;;11.00;6.20;;;;;;;11.29;72.37;98090.98;105878;1253;61687;-23
2023/04/13 19:05:36;;;;;;;10.20;6.30;;;;;;;11.03;73.62;98091.89;105892;1253;75356;-23
2023/04/13 19:08:06;;;;;;;8.50;5.60;;;;;;;10.83;74.47;98094.14;105816;1253;75827;-23
2023/04/13 19:10:35;;;;;;;11.70;6.00;;;;;;;10.65;74.99;98092.76;105514;1255;72965;-23
2023/04/13 19:13:04;;;;;;;4.10;3.20;;;;;;;10.55;76.09;98091.75;105659;1253;63027;-23
2023/04/13 19:15:35;;;;;;;6.30;4.10;;;;;;;11.07;75.77;98096.80;105587;1253;61845;-23
2023/04/13 19:18:09;;;;;;;6.10;4.70;;;;;;;11.62;73.80;98097.34;105437;1253;75278;-23
2023/04/13 19:20:38;;;;;;;8.20;5.10;;;;;;;11.67;73.30;98096.10;105665;1259;75957;-23
2023/04/13 19:23:07;;;;;;;9.90;5.10;;;;;;;11.49;73.67;98103.68;105858;1253;74132;-23
2023/04/13 19:25:39;;;;;;;8.20;5.70;;;;;;;11.26;74.71;98105.04;105790;1254;61888;-23
2023/04/13 19:28:09;;;;;;;8.80;5.60;;;;;;;11.06;75.20;98108.00;105664;1252;62019;-23
2023/04/13 19:30:37;;;;;;;7.20;5.50;;;;;;;10.83;76.30;98105.77;105791;1253;74675;-23
2023/04/13 19:33:06;;;;;;;8.00;5.10;;;;;;;10.59;77.68;98110.34;105702;1253;75766;-23
2023/04/13 19:35:35;;;;;;;5.70;3.10;;;;;;;10.43;79.06;98107.48;105611;1256;74178;-23
2023/04/13 19:38:04;;;;;;;6.60;3.30;;;;;;;10.90;78.74;98106.33;105846;1258;61916;-23
2023/04/13 19:40:39;;;;;;;9.60;5.50;;;;;;;11.48;76.52;98108.60;105813;1257;61108;-23
2023/04/13 19:43:07;;;;;;;42.40;16.20;;;;;;;11.58;75.54;98108.16;105913;1257;74376;-23
2023/04/13 19:45:38;;;;;;;25.50;10.50;;;;;;;11.45;76.05;98108.19;105883;1253;74943;-23
2023/04/13 19:48:06;;;;;;;10.80;6.30;;;;;;;11.20;76.90;98108.45;105881;1253;74292;-23
2023/04/13 19:50:37;;;;;;;13.40;6.40;;;;;;;10.99;77.66;98110.52;105653;1253;61934;-23
2023/04/13 19:53:05;;;;;;;10.50;6.00;;;;;;;10.74;79.15;98110.79;105865;1254;61812;-23
2023/04/13 19:55:34;;;;;;;7.60;4.10;;;;;;;10.54;80.30;98111.63;105846;1253;75360;-23
2023/04/13 19:58:03;;;;;;;10.90;4.70;;;;;;;10.99;79.83;98111.49;105926;1254;75816;-23
2023/04/13 20:00:32;;;;;;;10.10;5.60;;;;;;;11.51;77.76;98108.45;105849;1254;72397;-23
2023/04/13 20:03:21;;;;;;;10.10;5.40;;;;;;;11.62;76.92;98110.83;105686;1253;61850;-23
2023/04/13 20:05:51;;;;;;;8.20;5.40;;;;;;;11.51;76.82;98111.09;105873;1253;61785;-23
2023/04/13 20:08:20;;;;;;;9.80;5.70;;;;;;;11.32;77.04;98111.02;105719;1258;75308;-23
2023/04/13 20:10:49;;;;;;;8.40;5.90;;;;;;;11.13;77.59;98113.09;105898;1257;75605;-24
2023/04/13 20:13:17;;;;;;;11.70;7.00;;;;;;;10.94;78.26;98111.30;105928;1253;73390;-23
2023/04/13 20:15:46;;;;;;;6.40;4.00;;;;;;;10.80;78.85;98111.44;105854;1253;62978;-23
2023/04/13 20:18:16;;;;;;;11.80;6.80;;;;;;;11.29;78.72;98111.37;105840;1257;61128;-23
2023/04/13 20:20:46;;;;;;;11.20;6.00;;;;;;;11.86;76.96;98107.42;105650;1259;74346;-23
2023/04/13 20:23:15;;;;;;;16.50;9.50;;;;;;;11.93;76.16;98110.00;105759;1257;75810;-23
2023/04/13 20:25:46;;;;;;;54.80;27.10;;;;;;;11.69;76.32;98113.27;105733;1253;74096;-23
2023/04/13 20:28:16;;;;;;;51.10;25.80;;;;;;;11.35;77.41;98115.64;105911;1256;61982;-23
2023/04/13 20:30:45;;;;;;;80.10;39.10;;;;;;;11.17;77.69;98119.96;105670;1253;61893;-24
2023/04/13 20:33:15;;;;;;;29.10;14.50;;;;;;;10.98;78.64;98118.91;105559;1253;74986;-23
2023/04/13 20:35:44;;;;;;;14.80;8.20;;;;;;;10.80;79.49;98116.45;105890;1253;74838;-23
2023/04/13 20:38:12;;;;;;;15.40;9.40;;;;;;;11.25;79.26;98119.91;105863;1253;73217;-23
2023/04/13 20:40:44;;;;;;;15.60;9.50;;;;;;;11.74;77.61;98116.04;105880;1253;62112;-23
2023/04/13 20:43:19;;;;;;;18.00;10.90;;;;;;;11.80;76.63;98112.72;105596;1253;61077;-23
2023/04/13 20:45:47;;;;;;;20.30;10.70;;;;;;;11.64;76.86;98115.56;105635;1258;75326;-23
2023/04/13 20:48:17;;;;;;;14.30;8.60;;;;;;;11.40;77.28;98120.54;105926;1253;75463;-25
2023/04/13 20:50:49;;;;;;;11.10;7.50;;;;;;;11.10;77.97;98122.36;105680;1253;74228;-23
2023/04/13 20:53:19;;;;;;;12.10;7.60;;;;;;;10.88;79.14;98123.87;105513;1252;61655;-23
2023/04/13 20:55:47;;;;;;;5.10;3.70;;;;;;;10.74;79.57;98122.81;105757;1257;61064;-23
2023/04/13 20:58:16;;;;;;;9.10;4.70;;;;;;;11.23;79.46;98124.45;105858;1256;74315;-23
2023/04/13 21:00:45;;;;;;;7.90;5.20;;;;;;;11.79;77.77;98126.61;105905;1253;75622;-23
2023/04/13 21:03:14;;;;;;;12.10;5.20;;;;;;;11.84;76.60;98125.16;105739;1253;74225;-23
2023/04/13 21:05:44;;;;;;;6.50;4.40;;;;;;;11.65;76.75;98128.98;105625;1253;61908;-23
2023/04/13 21:08:13;;;;;;;8.90;5.40;;;;;;;11.40;77.21;98126.41;105545;1258;61877;-23
2023/04/13 21:10:48;;;;;;;9.10;5.40;;;;;;;11.17;77.80;98127.46;105565;1253;75349;-23
2023/04/13 21:13:17;;;;;;;9.40;5.30;;;;;;;10.90;78.65;98124.22;105667;1253;75772;-25
2023/04/13 21:15:45;;;;;;;11.30;3.70;;;;;;;10.70;79.46;98128.36;105832;1253;74266;-24
2023/04/13 21:18:16;;;;;;;6.70;3.60;;;;;;;11.12;79.60;98126.59;105638;1253;61931;-23
2023/04/13 21:20:48;;;;;;;8.20;4.90;;;;;;;11.62;77.74;98129.27;105696;1257;61589;-23
2023/04/13 21:23:16;;;;;;;8.50;4.90;;;;;;;11.70;76.85;98130.92;105563;1253;75121;-23
2023/04/13 21:25:48;;;;;;;6.50;5.60;;;;;;;11.53;76.74;98131.18;105552;1259;75937;-23
2023/04/13 21:28:17;;;;;;;61.60;28.00;;;;;;;11.30;77.35;98132.66;105727;1258;72939;-23
2023/04/13 21:30:46;;;;;;;230.80;103.70;;;;;;;11.04;78.15;98132.50;105662;1253;61632;-23
2023/04/13 21:33:16;;;;;;;58.00;26.20;;;;;;;10.72;79.99;98130.59;105667;1258;61879;-22
2023/04/13 21:35:45;;;;;;;15.60;10.10;;;;;;;10.51;81.16;98128.27;105680;1253;75380;-23
2023/04/13 21:38:13;;;;;;;35.40;16.00;;;;;;;11.01;80.31;98128.14;105906;1259;75653;-22
2023/04/13 21:40:42;;;;;;;55.40;26.10;;;;;;;11.56;77.99;98122.09;105826;1254;73883;-23
2023/04/13 21:43:11;;;;;;;30.10;16.70;;;;;;;11.54;76.78;98120.66;105780;1254;61826;-22
2023/04/13 21:45:39;;;;;;;16.00;9.80;;;;;;;11.23;77.68;98122.52;105555;1252;61127;-22
2023/04/13 21:48:08;;;;;;;44.40;20.90;;;;;;;10.86;79.61;98120.05;105650;1253;75427;-23
2023/04/13 21:50:37;;;;;;;200.60;93.70;;;;;;;10.43;81.56;98120.65;105659;1254;75890;-23
2023/04/13 21:53:05;;;;;;;119.10;55.30;;;;;;;10.26;82.79;98120.86;105646;1258;74264;-23
2023/04/13 21:55:34;;;;;;;47.60;23.50;;;;;;;10.58;81.83;98120.43;105703;1254;61685;-23
2023/04/13 21:58:03;;;;;;;22.10;11.30;;;;;;;10.92;80.25;98112.21;105901;1257;61803;-23
2023/04/13 22:00:32;;;;;;;15.90;9.10;;;;;;;10.86;79.83;98113.47;105636;1253;74118;-23
2023/04/13 22:03:02;;;;;;;18.80;12.50;;;;;;;10.68;80.70;98115.73;105809;1254;75643;-23
2023/04/13 22:05:31;;;;;;;24.60;14.80;;;;;;;10.55;81.09;98115.38;105842;1253;74166;-23
2023/04/13 22:08:02;;;;;;;22.10;14.70;;;;;;;10.37;81.88;98112.88;105547;1253;61740;-22
2023/04/13 22:10:31;;;;;;;41.80;23.60;;;;;;;10.49;81.91;98111.23;105629;1255;61194;-23
2023/04/13 22:12:59;;;;;;;37.60;23.30;;;;;;;10.75;80.88;98112.27;105547;1254;75399;-23
2023/04/13 22:15:31;;;;;;;30.20;18.60;;;;;;;10.71;80.63;98119.23;105531;1258;75806;-22
2023/04/13 22:17:59;;;;;;;29.90;17.60;;;;;;;10.51;81.74;98117.19;105751;1253;74207;-22
2023/04/13 22:20:28;;;;;;;26.60;16.60;;;;;;;10.23;82.94;98121.10;105536;1253;61403;-22
2023/04/13 22:22:57;;;;;;;18.50;10.00;;;;;;;10.03;84.41;98122.00;105777;1257;61632;-22
2023/04/13 22:25:26;;;;;;;22.10;11.20;;;;;;;10.43;83.40;98115.50;105935;1253;75138;-23
2023/04/13 22:27:56;;;;;;;18.10;10.80;;;;;;;10.76;81.44;98118.04;105905;1259;75633;-22
2023/04/13 22:30:26;;;;;;;29.90;18.80;;;;;;;10.71;81.32;98119.61;105621;1257;74279;-23
2023/04/13 22:32:58;;;;;;;22.90;15.00;;;;;;;10.49;82.30;98123.38;105528;1255;61685;-22
2023/04/13 22:35:27;;;;;;;14.00;10.00;;;;;;;10.33;82.89;98125.38;105754;1253;61791;-23
2023/04/13 22:37:58;;;;;;;12.90;7.60;;;;;;;10.20;83.67;98124.28;105902;1253;75199;-23
2023/04/13 22:40:27;;;;;;;7.30;4.20;;;;;;;9.97;85.03;98127.92;105906;1253;74617;-23
2023/04/13 22:42:56;;;;;;;11.70;6.00;;;;;;;10.57;84.08;98119.19;105588;1253;74123;-23
2023/04/13 22:45:25;;;;;;;16.40;6.80;;;;;;;10.99;81.06;98122.63;105684;1257;62217;-22
2023/04/13 22:47:53;;;;;;;26.40;16.00;;;;;;;11.00;80.59;98121.70;105806;1254;61871;-23
2023/04/13 22:50:22;;;;;;;59.30;30.30;;;;;;;10.81;81.01;98120.52;105687;1253;75423;-23
2023/04/13 22:52:54;;;;;;;39.30;20.70;;;;;;;10.61;81.64;98122.40;105844;1259;75588;-23
2023/04/13 22:55:24;;;;;;;39.60;20.90;;;;;;;10.39;82.74;98124.92;105896;1254;74573;-22
2023/04/13 22:57:53;;;;;;;17.80;9.70;;;;;;;10.15;84.22;98128.00;105858;1253;63867;-22
2023/04/13 23:00:21;;;;;;;17.40;9.70;;;;;;;10.60;83.84;98128.10;105840;1259;61750;-23
2023/04/13 23:02:54;;;;;;;8.00;5.20;;;;;;;11.03;81.12;98129.03;105840;1253;75323;-23
2023/04/13 23:05:23;;;;;;;7.80;5.60;;;;;;;10.79;81.38;98130.59;105564;1258;75834;-22
2023/04/13 23:07:52;;;;;;;7.40;5.20;;;;;;;10.52;82.61;98132.66;105807;1253;74396;-24
2023/04/13 23:10:20;;;;;;;6.60;4.90;;;;;;;10.33;83.42;98133.23;105887;1253;61671;-23
2023/04/13 23:12:49;;;;;;;5.60;4.00;;;;;;;10.21;84.18;98129.69;105891;1254;61906;-22
2023/04/13 23:15:17;;;;;;;3.80;3.00;;;;;;;10.07;84.92;98129.95;105756;1257;74859;-22
2023/04/13 23:17:46;;;;;;;4.80;3.30;;;;;;;10.40;84.47;98129.84;105643;1253;75775;-23
2023/04/13 23:20:15;;;;;;;5.30;3.70;;;;;;;10.83;82.03;98127.84;105795;1253;73942;-23
2023/04/13 23:22:44;;;;;;;4.50;3.60;;;;;;;10.88;81.73;98128.20;105737;1256;61115;-23
2023/04/13 23:25:13;;;;;;;5.40;4.20;;;;;;;10.74;81.77;98131.10;105903;1253;61046;-23
2023/04/13 23:35:19;;;;;;;5.70;3.70;;;;;;;10.12;84.21;98131.55;102716;1291;600317;-22
2023/04/13 23:37:48;;;;;;;8.80;4.60;;;;;;;10.72;82.98;98130.59;105112;1266;62089;-22
2023/04/13 23:40:16;;;;;;;9.70;6.10;;;;;;;11.17;80.40;98137.20;105051;1267;62015;-22
2023/04/13 23:42:45;;;;;;;11.20;6.60;;;;;;;11.24;79.88;98138.09;104986;1266;73771;-22
2023/04/13 23:45:17;;;;;;;11.30;6.60;;;;;;;11.07;79.56;98140.77;105052;1266;75822;-24
2023/04/13 23:47:46;;;;;;;12.60;7.20;;;;;;;10.72;80.85;98142.38;103634;1266;2223972;-23
2023/04/13 23:50:16;;;;;;;10.70;7.00;;;;;;;10.40;82.55;98140.75;105112;1263;61796;-24
2023/04/13 23:52:45;;;;;;;9.30;5.20;;;;;;;10.21;83.35;98145.23;105111;1263;61568;-24
2023/04/13 23:55:14;;;;;;;10.40;5.10;;;;;;;10.61;82.92;98145.71;105228;1262;73776;-22
2023/04/13 23:57:43;;;;;;;8.40;5.60;;;;;;;11.06;80.49;98149.73;105233;1267;75710;-24
